Time;durP1;ratioP1;P1;durP2;ratioP2;P2;SDS_P1;SDS_P2;PMS_P1;PMS_P2;Temp;Humidity;BMP_temperature;BMP_pressure;BME280_temperature;BME280_humidity;BME280_pressure;Samples;Min_cycle;Max_cycle;Signal;HPM_P1;HPM_P2
2022/08/21 00:01:53;;;;;;;11.50;9.30;;;;;;;17.64;100.00;98495.59;15305701;19;20491;-85
2022/08/21 00:07:01;;;;;;;12.25;9.30;;;;;;;17.64;100.00;98499.16;15304035;19;20095;-87
2022/08/21 00:12:12;;;;;;;9.32;8.10;;;;;;;17.58;100.00;98488.25;15313440;19;20676;-85
2022/08/21 00:17:17;;;;;;;10.10;8.23;;;;;;;17.49;100.00;98496.59;15296185;19;20014;-85
2022/08/21 00:22:25;;;;;;;11.52;10.30;;;;;;;17.38;100.00;98497.19;15293968;19;20017;-85
2022/08/21 00:27:30;;;;;;;11.30;9.73;;;;;;;17.33;100.00;98503.25;15291655;19;20014;-85
2022/08/21 00:32:35;;;;;;;11.43;10.25;;;;;;;17.28;100.00;98497.59;15296336;19;20018;-85
2022/08/21 00:37:43;;;;;;;11.25;10.05;;;;;;;17.24;100.00;98499.84;15298333;19;20014;-85
2022/08/21 00:42:48;;;;;;;11.10;9.98;;;;;;;17.22;100.00;98496.53;15293775;19;20086;-86
2022/08/21 00:48:00;;;;;;;13.43;9.98;;;;;;;17.22;100.00;98485.63;15297395;19;20022;-85
2022/08/21 00:53:09;;;;;;;9.60;8.60;;;;;;;17.22;100.00;98482.03;15294597;19;20031;-87
2022/08/21 00:58:16;;;;;;;9.85;8.85;;;;;;;17.27;100.00;98478.72;15291610;19;20778;-85
2022/08/21 01:03:26;;;;;;;7.45;6.82;;;;;;;17.27;100.00;98468.69;15303541;19;20018;-85
2022/08/21 01:08:34;;;;;;;118.85;9.65;;;;;;;17.22;100.00;98461.13;15292514;19;20022;-85
2022/08/21 01:13:51;;;;;;;177.30;10.23;;;;;;;17.17;100.00;98450.00;15295729;19;20011;-86
2022/08/21 01:18:58;;;;;;;36.22;8.25;;;;;;;17.12;100.00;98444.31;15292643;19;20015;-86
2022/08/21 01:24:06;;;;;;;7.40;6.72;;;;;;;17.10;100.00;98441.78;15292402;19;20011;-87
2022/08/21 01:29:19;;;;;;;11.98;7.40;;;;;;;17.09;100.00;98450.19;15292594;19;20337;-86
2022/08/21 01:34:24;;;;;;;38.38;8.80;;;;;;;17.04;100.00;98458.09;15287067;19;20018;-86
2022/08/21 01:39:36;;;;;;;20.48;9.35;;;;;;;17.02;100.00;98465.63;15293693;19;20299;-86
2022/08/21 01:44:42;;;;;;;21.15;11.20;;;;;;;16.91;100.00;98476.00;15290513;19;20035;-85
2022/08/21 01:49:56;;;;;;;13.82;10.68;;;;;;;16.85;100.00;98473.25;15291820;19;20709;-85
2022/08/21 01:55:10;;;;;;;10.87;9.37;;;;;;;16.89;100.00;98472.63;15288238;19;20006;-85
2022/08/21 02:00:19;;;;;;;11.10;9.98;;;;;;;16.89;100.00;98461.75;15297314;19;20015;-87
2022/08/21 02:05:26;;;;;;;33.10;10.20;;;;;;;16.88;100.00;98462.78;15296699;19;20078;-85
2022/08/21 02:10:35;;;;;;;18.25;9.65;;;;;;;16.89;100.00;98460.94;15298775;19;20022;-86
2022/08/21 02:15:39;;;;;;;422.98;16.55;;;;;;;16.83;100.00;98470.72;15294470;19;20010;-85
2022/08/21 02:20:48;;;;;;;630.08;21.45;;;;;;;16.79;100.00;98478.47;15294532;19;20022;-86
2022/08/21 02:26:06;;;;;;;376.55;17.50;;;;;;;16.77;100.00;98469.66;15307202;19;20039;-86
2022/08/21 02:31:15;;;;;;;114.85;10.65;;;;;;;16.79;100.00;98466.72;15344143;19;20018;-86
2022/08/21 02:36:26;;;;;;;128.95;11.50;;;;;;;16.80;100.00;98479.28;15313731;19;20033;-86
2022/08/21 02:41:34;;;;;;;47.45;10.68;;;;;;;16.81;100.00;98483.69;15302035;19;20014;-86
2022/08/21 02:46:39;;;;;;;13.73;9.63;;;;;;;16.79;100.00;98473.03;15296393;19;20011;-88
2022/08/21 02:51:47;;;;;;;55.38;10.13;;;;;;;16.82;100.00;98471.78;15296687;19;20006;-89
2022/08/21 02:56:54;;;;;;;18.90;10.38;;;;;;;16.81;100.00;98475.53;15296016;19;20015;-86
2022/08/21 03:01:59;;;;;;;11.65;10.45;;;;;;;16.78;100.00;98463.19;15330389;19;20051;-91
2022/08/21 03:07:11;;;;;;;102.43;11.02;;;;;;;16.77;100.00;98461.50;15358981;19;20024;-91
2022/08/21 03:12:20;;;;;;;38.42;11.70;;;;;;;16.77;100.00;98466.06;15366425;19;20025;-91
2022/08/21 03:18:04;;;;;;;71.50;13.45;;;;;;;16.77;100.00;98474.25;15339735;19;20021;-86
2022/08/21 03:23:10;;;;;;;87.65;13.30;;;;;;;16.75;100.00;98468.19;15313209;19;20007;-86
2022/08/21 03:28:25;;;;;;;160.48;12.73;;;;;;;16.74;100.00;98470.06;15319494;19;20018;-88
2022/08/21 03:33:30;;;;;;;57.92;10.98;;;;;;;16.73;100.00;98467.53;15316650;19;20011;-86
2022/08/21 03:38:40;;;;;;;28.88;9.73;;;;;;;16.68;100.00;98462.72;15303313;19;20078;-87
2022/08/21 03:43:48;;;;;;;46.85;10.23;;;;;;;16.66;100.00;98461.19;15300001;19;20014;-85
2022/08/21 03:48:56;;;;;;;81.22;10.38;;;;;;;16.62;100.00;98466.19;15300728;19;20020;-86
2022/08/21 03:54:04;;;;;;;11.45;9.60;;;;;;;16.59;100.00;98461.16;15295570;19;20014;-87
2022/08/21 03:59:16;;;;;;;10.45;9.45;;;;;;;16.57;100.00;98469.53;15311868;19;20014;-87
2022/08/21 04:04:21;;;;;;;;;;;;;;;16.57;100.00;98474.97;15309916;19;20018;-87
2022/08/21 04:09:29;;;;;;;326.95;18.13;;;;;;;16.54;100.00;98471.81;15311392;19;19923;-87
2022/08/21 04:14:44;;;;;;;111.13;13.60;;;;;;;16.49;100.00;98483.28;15307140;19;20014;-87
2022/08/21 04:19:51;;;;;;;649.33;22.40;;;;;;;16.47;100.00;98485.34;15320522;19;20338;-88
2022/08/21 04:24:57;;;;;;;237.80;15.63;;;;;;;16.47;100.00;98490.78;15317008;19;20024;-87
2022/08/21 04:30:10;;;;;;;303.08;17.80;;;;;;;16.46;100.00;98510.88;15306637;19;20054;-89
2022/08/21 04:35:21;;;;;;;655.78;22.80;;;;;;;16.44;100.00;98504.78;15304285;19;20018;-86
2022/08/21 04:40:30;;;;;;;199.30;14.38;;;;;;;16.43;100.00;98511.25;15323670;19;20023;-86
2022/08/21 04:45:54;;;;;;;44.47;11.20;;;;;;;16.42;100.00;98521.31;15304484;19;20014;-87
2022/08/21 04:51:05;;;;;;;355.20;16.20;;;;;;;16.40;100.00;98514.38;15312038;19;20031;-86
2022/08/21 04:56:15;;;;;;;519.58;19.30;;;;;;;16.32;100.00;98509.94;15301322;19;20029;-87
2022/08/21 05:01:26;;;;;;;534.25;18.80;;;;;;;16.30;100.00;98520.16;15306522;19;20014;-87
2022/08/21 05:06:33;;;;;;;;;;;;;;;16.27;100.00;98524.13;15304099;19;20014;-86
2022/08/21 05:11:40;;;;;;;337.20;15.63;;;;;;;16.25;100.00;98531.63;15316626;19;20392;-86
2022/08/21 05:16:57;;;;;;;768.65;27.55;;;;;;;16.25;100.00;98526.19;15302610;19;20019;-85
2022/08/21 05:22:04;;;;;;;451.40;19.38;;;;;;;16.21;100.00;98526.78;15311608;19;20023;-87
2022/08/21 05:27:08;;;;;;;500.58;22.00;;;;;;;16.19;100.00;98537.81;15313875;19;20015;-85
2022/08/21 05:32:17;;;;;;;381.80;18.95;;;;;;;16.22;100.00;98548.31;15311307;19;20018;-86
2022/08/21 05:37:22;;;;;;;114.35;15.00;;;;;;;16.24;100.00;98542.66;15308277;19;20010;-86
2022/08/21 05:42:29;;;;;;;232.73;17.23;;;;;;;16.23;100.00;98552.72;15318176;19;20041;-86
2022/08/21 05:47:37;;;;;;;307.67;18.52;;;;;;;16.27;100.00;98547.72;15324760;19;20010;-90
2022/08/21 05:52:47;;;;;;;165.55;14.38;;;;;;;16.26;100.00;98549.63;15367431;19;20009;-85
2022/08/21 05:58:00;;;;;;;49.53;11.98;;;;;;;16.29;100.00;98549.19;15316678;19;20032;-85
2022/08/21 06:03:25;;;;;;;77.88;11.23;;;;;;;16.26;100.00;98554.19;15311433;19;20020;-86
2022/08/21 06:08:43;;;;;;;140.82;12.80;;;;;;;16.27;100.00;98553.16;15311429;19;20476;-87
2022/08/21 06:13:48;;;;;;;370.20;15.77;;;;;;;16.27;100.00;98558.59;15320591;19;20064;-86
2022/08/21 06:19:03;;;;;;;358.63;17.90;;;;;;;16.27;100.00;98561.31;15313284;19;20046;-87
2022/08/21 06:24:09;;;;;;;441.60;19.13;;;;;;;16.32;100.00;98565.13;15304696;19;20118;-87
2022/08/21 06:29:17;;;;;;;199.55;14.65;;;;;;;16.40;100.00;98566.06;15310768;19;20006;-88
2022/08/21 06:34:43;;;;;;;231.68;14.25;;;;;;;16.51;100.00;98560.09;15299530;19;20015;-88
2022/08/21 06:39:55;;;;;;;50.70;11.63;;;;;;;16.56;100.00;98560.31;15308359;19;20035;-88
2022/08/21 06:45:07;;;;;;;16.30;10.30;;;;;;;16.67;100.00;98561.66;15303340;19;20018;-88
2022/08/21 06:50:19;;;;;;;9.20;8.30;;;;;;;16.78;100.00;98546.66;15309768;19;20082;-86
2022/08/21 06:55:24;;;;;;;8.85;7.90;;;;;;;16.88;100.00;98547.16;15300728;19;20716;-86
2022/08/21 07:00:35;;;;;;;9.20;8.30;;;;;;;17.01;100.00;98545.59;15290678;19;20010;-86
2022/08/21 07:05:42;;;;;;;9.38;8.35;;;;;;;17.12;100.00;98546.91;15291568;19;20007;-87
2022/08/21 07:10:48;;;;;;;7.85;7.10;;;;;;;17.23;100.00;98544.47;15288283;19;20493;-86
2022/08/21 07:15:54;;;;;;;8.40;7.60;;;;;;;17.35;100.00;98539.28;15294306;19;20006;-86
2022/08/21 07:21:08;;;;;;;7.93;7.17;;;;;;;17.43;100.00;98529.25;15297414;19;20093;-88
2022/08/21 07:26:15;;;;;;;7.40;6.70;;;;;;;17.56;100.00;98526.59;15283100;19;20013;-86
2022/08/21 07:31:21;;;;;;;7.50;6.80;;;;;;;17.71;100.00;98523.69;15305564;19;20010;-87
2022/08/21 07:36:29;;;;;;;6.90;6.28;;;;;;;17.84;100.00;98512.84;15311031;19;20021;-85
2022/08/21 07:41:37;;;;;;;6.63;5.93;;;;;;;18.00;100.00;98506.19;15319787;19;20780;-83
2022/08/21 07:46:44;;;;;;;6.35;5.75;;;;;;;18.14;100.00;98490.69;15308149;19;20015;-85
2022/08/21 07:51:54;;;;;;;5.00;4.15;;;;;;;18.25;100.00;98466.56;15314211;19;20017;-85
2022/08/21 07:57:01;;;;;;;5.00;4.50;;;;;;;18.43;100.00;98468.66;15308585;19;20018;-86
2022/08/21 08:02:06;;;;;;;4.72;3.97;;;;;;;18.56;100.00;98467.81;15318639;19;20014;-86
2022/08/21 08:07:13;;;;;;;4.65;3.28;;;;;;;18.62;100.00;98461.50;15325283;19;20031;-85
2022/08/21 08:12:22;;;;;;;4.88;3.22;;;;;;;18.73;100.00;98460.84;15307324;19;20018;-84
2022/08/21 08:17:31;;;;;;;3.47;3.17;;;;;;;18.81;100.00;98458.94;15294211;19;20101;-85
2022/08/21 08:22:41;;;;;;;7.88;2.63;;;;;;;18.89;100.00;98445.03;15306880;19;20031;-84
2022/08/21 08:27:45;;;;;;;5.70;2.20;;;;;;;19.02;100.00;98439.56;15315371;19;20038;-84
2022/08/21 08:32:51;;;;;;;4.22;2.08;;;;;;;19.03;100.00;98437.69;15302833;19;20500;-84
2022/08/21 08:37:59;;;;;;;5.25;1.95;;;;;;;19.13;100.00;98437.22;15306117;19;20021;-84
2022/08/21 08:43:05;;;;;;;5.07;2.22;;;;;;;19.22;100.00;98438.69;15304435;19;20019;-85
2022/08/21 08:48:15;;;;;;;4.57;2.15;;;;;;;19.35;100.00;98438.59;15303637;19;20024;-84
2022/08/21 08:53:31;;;;;;;3.40;2.00;;;;;;;19.49;100.00;98441.25;15308090;19;20014;-84
2022/08/21 08:58:40;;;;;;;5.72;1.70;;;;;;;19.61;100.00;98422.28;15305232;19;20022;-85
2022/08/21 09:03:49;;;;;;;4.80;2.08;;;;;;;19.76;100.00;98432.91;15308900;19;20010;-85
2022/08/21 09:09:11;;;;;;;3.50;1.88;;;;;;;19.85;100.00;98423.38;15344278;19;20014;-85
2022/08/21 09:14:28;;;;;;;3.33;2.10;;;;;;;20.07;100.00;98431.22;15333991;19;20019;-85
2022/08/21 09:19:55;;;;;;;3.58;1.55;;;;;;;20.24;100.00;98426.88;15314879;19;20017;-85
2022/08/21 09:25:11;;;;;;;2.80;1.65;;;;;;;20.30;100.00;98417.75;15313140;19;20006;-85
2022/08/21 09:30:16;;;;;;;3.63;1.92;;;;;;;20.31;100.00;98411.22;15310355;19;20034;-86
2022/08/21 09:35:23;;;;;;;5.32;1.70;;;;;;;20.52;100.00;98411.84;15308180;19;20484;-83
2022/08/21 09:40:38;;;;;;;3.35;1.80;;;;;;;20.42;100.00;98412.41;15303267;19;20011;-86
2022/08/21 09:45:44;;;;;;;3.22;1.60;;;;;;;20.64;100.00;98410.03;15303257;19;20019;-86
2022/08/21 09:50:52;;;;;;;3.53;1.70;;;;;;;20.68;100.00;98415.06;15306556;19;20034;-85
2022/08/21 10:01:28;;;;;;;3.53;1.50;;;;;;;20.92;100.00;98400.50;15306982;19;20014;-84
2022/08/21 10:06:34;;;;;;;2.33;1.30;;;;;;;21.14;100.00;98407.41;15299359;19;20025;-84
2022/08/21 10:11:56;;;;;;;2.67;1.30;;;;;;;21.37;100.00;98402.03;15304579;19;20098;-84
2022/08/21 10:17:04;;;;;;;;;;;;;;;21.43;100.00;98393.94;15299297;19;20010;-83
2022/08/21 10:22:22;;;;;;;2.67;1.30;;;;;;;21.66;100.00;98387.75;15297835;19;20297;-84
2022/08/21 10:27:44;;;;;;;2.30;1.15;;;;;;;21.64;100.00;98385.22;15297580;19;20010;-83
2022/08/21 10:33:05;;;;;;;3.97;1.40;;;;;;;21.71;100.00;98385.09;15306172;19;20614;-85
2022/08/21 10:38:29;;;;;;;;;;;;;;;21.86;100.00;98385.50;15300673;19;20025;-84
2022/08/21 10:44:07;;;;;;;3.03;0.90;;;;;;;21.90;100.00;98382.31;15299363;19;19918;-85
2022/08/21 10:49:22;;;;;;;4.47;1.10;;;;;;;21.97;100.00;98380.28;15301892;19;20042;-85
2022/08/21 10:54:40;;;;;;;2.75;1.10;;;;;;;22.08;100.00;98373.13;15290913;19;20022;-84
2022/08/21 10:59:56;;;;;;;8.32;1.50;;;;;;;22.26;100.00;98367.53;15289410;19;20020;-84
2022/08/21 11:05:07;;;;;;;11.15;3.30;;;;;;;22.36;100.00;98369.69;15302027;19;20413;-83
2022/08/21 11:10:19;;;;;;;6.20;2.15;;;;;;;22.44;100.00;98372.09;15310774;19;20018;-86
2022/08/21 11:15:39;;;;;;;2.80;1.10;;;;;;;22.68;100.00;98365.72;15314454;19;20034;-85
2022/08/21 11:20:51;;;;;;;2.67;1.20;;;;;;;23.07;100.00;98358.56;15322800;19;20024;-84
2022/08/21 11:26:03;;;;;;;4.47;1.17;;;;;;;23.33;100.00;98359.09;15322873;19;20010;-85
2022/08/21 11:31:25;;;;;;;4.10;2.03;;;;;;;23.39;100.00;98354.53;15321905;19;20038;-84
2022/08/21 11:36:40;;;;;;;2.60;1.20;;;;;;;23.33;100.00;98353.59;15323414;19;20010;-84
2022/08/21 11:42:00;;;;;;;4.65;1.10;;;;;;;23.32;100.00;98342.84;15323381;19;20007;-86
2022/08/21 11:47:17;;;;;;;9.02;1.60;;;;;;;23.31;100.00;98342.03;15314572;19;20722;-82
2022/08/21 11:52:27;;;;;;;2.97;1.10;;;;;;;23.21;100.00;98337.16;15363038;19;20047;-82
2022/08/21 11:57:40;;;;;;;2.97;1.20;;;;;;;22.95;100.00;98333.06;15364980;19;20010;-82
2022/08/21 12:02:53;;;;;;;4.72;0.88;;;;;;;23.04;100.00;98325.25;15331205;19;20031;-82
2022/08/21 12:08:12;;;;;;;4.07;1.33;;;;;;;23.18;100.00;98323.03;15325967;19;20031;-83
2022/08/21 12:13:30;;;;;;;2.55;1.23;;;;;;;23.35;100.00;98321.19;15317212;19;20039;-83
2022/08/21 12:19:13;;;;;;;8.57;1.10;;;;;;;23.68;100.00;98318.72;15294199;19;20014;-83
2022/08/21 12:24:36;;;;;;;4.47;1.20;;;;;;;23.86;100.00;98314.88;15314618;19;20006;-83
2022/08/21 12:29:48;;;;;;;5.57;1.10;;;;;;;23.95;100.00;98318.06;15305937;19;20013;-83
2022/08/21 12:35:00;;;;;;;7.47;1.30;;;;;;;23.88;100.00;98326.47;15293591;19;20123;-83
2022/08/21 12:40:13;;;;;;;5.13;1.10;;;;;;;23.77;100.00;98317.22;15301241;19;20425;-81
2022/08/21 12:45:22;;;;;;;3.45;1.00;;;;;;;23.90;100.00;98316.06;15331713;19;20014;-82
2022/08/21 12:50:38;;;;;;;3.80;1.15;;;;;;;24.03;100.00;98308.56;15308819;19;20397;-81
2022/08/21 12:55:44;;;;;;;1.45;1.00;;;;;;;24.34;100.00;98292.50;15303910;19;20015;-83
2022/08/21 13:00:52;;;;;;;3.65;0.80;;;;;;;24.39;100.00;98289.81;15322661;19;20013;-81
2022/08/21 13:06:01;;;;;;;3.47;1.00;;;;;;;24.65;100.00;98296.47;15341506;19;20017;-83
2022/08/21 13:11:27;;;;;;;2.53;0.90;;;;;;;25.03;100.00;98294.75;15364504;19;20018;-83
2022/08/21 13:16:39;;;;;;;1.67;0.90;;;;;;;25.11;100.00;98290.66;15370699;19;20015;-83
2022/08/21 13:21:48;;;;;;;2.70;1.08;;;;;;;25.10;93.49;98282.66;15369330;19;20015;-82
2022/08/21 13:32:33;;;;;;;2.45;0.90;;;;;;;25.37;100.00;98283.50;15368392;19;19999;-83
2022/08/21 13:37:48;;;;;;;1.63;0.77;;;;;;;25.83;99.51;98273.97;15373331;19;20033;-81
2022/08/21 13:48:37;;;;;;;3.10;0.90;;;;;;;26.39;88.38;98279.03;15322310;19;19982;-87
2022/08/21 13:53:55;;;;;;;2.47;0.80;;;;;;;26.74;79.74;98269.22;15319731;19;20010;-83
2022/08/21 13:59:01;;;;;;;1.65;0.98;;;;;;;26.98;72.05;98271.53;15319485;19;20035;-85
2022/08/21 14:04:10;;;;;;;2.90;0.80;;;;;;;27.16;76.71;98269.34;15283151;19;20511;-84
2022/08/21 14:09:29;;;;;;;1.63;0.77;;;;;;;27.43;63.55;98266.31;15298838;19;20385;-84
2022/08/21 14:14:36;;;;;;;2.42;0.85;;;;;;;27.53;62.36;98262.75;15308095;19;20059;-85
2022/08/21 14:19:44;;;;;;;2.22;0.70;;;;;;;27.67;67.25;98266.63;15306819;19;20038;-85
2022/08/21 14:24:52;;;;;;;2.47;0.90;;;;;;;27.71;61.82;98258.59;15302493;19;20037;-82
2022/08/21 14:30:01;;;;;;;1.60;0.88;;;;;;;27.57;56.29;98260.25;15306156;19;20011;-83
2022/08/21 14:35:08;;;;;;;2.05;0.80;;;;;;;27.36;60.01;98261.06;15309548;19;20021;-83
2022/08/21 14:40:16;;;;;;;1.70;0.80;;;;;;;27.59;58.81;98258.06;15305207;19;20357;-83
2022/08/21 14:45:28;;;;;;;1.27;0.60;;;;;;;27.43;56.91;98248.91;15306278;19;20443;-86
2022/08/21 14:50:33;;;;;;;1.63;0.75;;;;;;;26.96;55.41;98246.09;15317605;19;20018;-85
2022/08/21 15:01:03;;;;;;;2.00;0.80;;;;;;;26.66;57.29;98253.16;15306161;19;20038;-84
2022/08/21 15:06:11;;;;;;;1.27;0.70;;;;;;;26.63;59.41;98248.19;15306667;19;20027;-85
2022/08/21 15:11:21;;;;;;;3.13;0.80;;;;;;;27.27;56.55;98235.06;15306230;19;20038;-84
2022/08/21 15:16:46;;;;;;;1.30;0.73;;;;;;;27.59;57.09;98235.91;15298111;19;20017;-84
2022/08/21 15:21:51;;;;;;;1.52;0.88;;;;;;;28.04;54.60;98234.19;15319901;19;20003;-83
2022/08/21 15:26:59;;;;;;;2.45;0.80;;;;;;;27.90;51.88;98233.09;15345454;19;20059;-84
2022/08/21 15:32:18;;;;;;;1.92;0.90;;;;;;;28.25;55.68;98235.00;15302185;19;20042;-83
2022/08/21 15:37:23;;;;;;;1.77;0.75;;;;;;;28.55;55.53;98227.66;15296772;19;20018;-84
2022/08/21 15:42:31;;;;;;;1.77;0.90;;;;;;;28.55;50.79;98229.59;15294532;19;20018;-83
2022/08/21 15:47:38;;;;;;;1.50;0.90;;;;;;;28.93;55.02;98234.69;15298456;19;20006;-84
2022/08/21 15:52:43;;;;;;;2.97;0.65;;;;;;;29.00;56.35;98229.63;15305526;19;20010;-82
2022/08/21 15:57:53;;;;;;;1.42;0.70;;;;;;;29.15;52.56;98225.94;15300535;19;20011;-84
2022/08/21 16:03:02;;;;;;;2.00;0.70;;;;;;;29.20;54.60;98220.34;15327229;19;20035;-82
2022/08/21 16:08:07;;;;;;;2.85;0.70;;;;;;;29.27;52.57;98217.25;15301771;19;20020;-85
2022/08/21 16:13:24;;;;;;;4.22;0.90;;;;;;;29.43;51.06;98221.59;15301791;19;20018;-82
2022/08/21 16:18:29;;;;;;;2.35;0.85;;;;;;;29.20;51.94;98215.66;15299521;19;20014;-84
2022/08/21 16:23:34;;;;;;;2.97;0.68;;;;;;;29.43;53.22;98215.19;15299067;19;20673;-84
2022/08/21 16:28:45;;;;;;;1.27;0.70;;;;;;;29.61;50.92;98208.09;15308083;19;20018;-83
2022/08/21 16:33:55;;;;;;;4.80;0.90;;;;;;;29.52;50.22;98214.28;15303324;19;20038;-84
2022/08/21 16:39:02;;;;;;;3.83;0.82;;;;;;;29.42;52.28;98213.53;15300806;19;20023;-86
2022/08/21 16:44:11;;;;;;;1.17;0.80;;;;;;;29.52;52.36;98205.97;15304355;19;20019;-84
2022/08/21 16:49:19;;;;;;;1.25;0.77;;;;;;;29.21;50.73;98211.75;15316671;19;20034;-84
2022/08/21 16:54:24;;;;;;;1.88;0.68;;;;;;;28.94;52.67;98212.19;15303219;19;20646;-83
2022/08/21 16:59:32;;;;;;;2.78;0.90;;;;;;;28.78;52.18;98210.66;15297576;19;20014;-82
2022/08/21 17:04:37;;;;;;;3.13;0.77;;;;;;;28.60;53.51;98207.38;15288883;19;20034;-85
2022/08/21 17:09:42;;;;;;;1.20;0.65;;;;;;;28.43;53.43;98216.06;15294141;19;20025;-84
2022/08/21 17:14:50;;;;;;;2.35;0.80;;;;;;;28.35;53.65;98208.34;15292621;19;20503;-84
2022/08/21 17:19:55;;;;;;;2.15;0.70;;;;;;;28.05;55.74;98210.09;15297947;19;20262;-83
2022/08/21 17:25:00;;;;;;;2.00;0.80;;;;;;;27.71;57.96;98213.47;15288425;19;20030;-81
2022/08/21 17:30:09;;;;;;;1.35;0.70;;;;;;;27.24;58.88;98213.47;15293923;19;20010;-83
2022/08/21 17:35:14;;;;;;;1.20;0.80;;;;;;;26.59;62.12;98220.25;15294723;19;20498;-83
2022/08/21 17:40:19;;;;;;;2.35;1.00;;;;;;;26.26;67.94;98216.81;15288050;19;20023;-83
2022/08/21 17:45:26;;;;;;;2.00;0.88;;;;;;;25.76;71.49;98218.16;15290708;19;20411;-83
2022/08/21 17:50:31;;;;;;;1.10;0.88;;;;;;;25.33;79.46;98227.19;15292589;19;20075;-83
2022/08/21 17:55:40;;;;;;;3.22;1.00;;;;;;;25.15;86.18;98227.59;15289693;19;20012;-84
2022/08/21 18:00:48;;;;;;;3.60;0.82;;;;;;;24.95;92.05;98230.97;15298573;19;20030;-85
2022/08/21 18:05:55;;;;;;;1.70;0.98;;;;;;;24.66;97.58;98233.94;15321040;19;20021;-86
2022/08/21 18:11:10;;;;;;;1.23;0.77;;;;;;;24.35;99.72;98234.41;15361909;19;20022;-83
2022/08/21 18:16:32;;;;;;;1.38;0.77;;;;;;;23.92;100.00;98242.38;15305225;19;20015;-82
2022/08/21 18:21:37;;;;;;;2.67;1.08;;;;;;;23.46;100.00;98231.47;15279000;19;20015;-81
2022/08/21 18:26:43;;;;;;;1.90;1.05;;;;;;;23.08;100.00;98239.34;15297230;19;20038;-82
2022/08/21 18:31:51;;;;;;;1.85;1.02;;;;;;;22.81;100.00;98238.28;15293706;19;20159;-83
2022/08/21 18:36:57;;;;;;;2.65;1.02;;;;;;;22.56;100.00;98242.19;15296434;19;20011;-83
2022/08/21 18:42:04;;;;;;;2.53;0.90;;;;;;;22.38;100.00;98246.78;15290308;19;20006;-83
2022/08/21 18:47:17;;;;;;;3.10;1.10;;;;;;;22.21;100.00;98257.66;15296258;19;20035;-81
2022/08/21 18:52:22;;;;;;;1.90;0.95;;;;;;;21.98;100.00;98264.84;15273807;19;20073;-83
2022/08/21 18:57:32;;;;;;;2.40;1.00;;;;;;;21.82;100.00;98263.63;15296799;19;20018;-83
2022/08/21 19:02:40;;;;;;;2.70;1.15;;;;;;;21.64;100.00;98267.31;15298101;19;20047;-83
2022/08/21 19:07:47;;;;;;;1.70;1.00;;;;;;;21.34;100.00;98270.16;15290453;19;20021;-82
2022/08/21 19:12:53;;;;;;;2.88;1.17;;;;;;;21.18;100.00;98271.63;15283843;19;20006;-82
2022/08/21 19:18:06;;;;;;;2.28;1.10;;;;;;;21.03;100.00;98281.13;15297694;19;20011;-83
2022/08/21 19:23:14;;;;;;;2.17;1.20;;;;;;;20.91;100.00;98272.03;15293386;19;20011;-83
2022/08/21 19:28:28;;;;;;;2.60;1.30;;;;;;;20.74;100.00;98269.94;15306812;19;20014;-81
2022/08/21 19:33:39;;;;;;;3.47;1.40;;;;;;;20.68;100.00;98275.47;15307149;19;20046;-82
2022/08/21 19:38:47;;;;;;;3.00;1.40;;;;;;;20.56;100.00;98273.50;15311950;19;20026;-83
2022/08/21 19:43:56;;;;;;;2.67;1.40;;;;;;;20.41;100.00;98275.78;15318293;19;20003;-84
2022/08/21 19:49:08;;;;;;;2.25;1.23;;;;;;;20.24;100.00;98281.88;15325654;19;20023;-82
2022/08/21 19:54:17;;;;;;;3.13;1.35;;;;;;;20.10;100.00;98283.94;15338376;19;20058;-83
2022/08/21 19:59:26;;;;;;;3.22;1.60;;;;;;;19.97;100.00;98289.53;15311587;19;20015;-81
2022/08/21 20:04:34;;;;;;;3.15;1.50;;;;;;;19.79;100.00;98287.59;15302854;19;20014;-80
2022/08/21 20:09:39;;;;;;;3.90;1.50;;;;;;;19.66;100.00;98291.25;15313948;19;20110;-81
2022/08/21 20:14:47;;;;;;;3.05;1.50;;;;;;;19.56;100.00;98289.03;15312211;19;20007;-82
2022/08/21 20:19:58;;;;;;;7.88;1.50;;;;;;;19.48;100.00;98283.84;15313787;19;20010;-81
2022/08/21 20:25:03;;;;;;;5.20;1.60;;;;;;;19.36;100.00;98289.19;15313741;19;20025;-81
2022/08/21 20:30:11;;;;;;;2.92;1.33;;;;;;;19.28;100.00;98287.56;15318913;19;20021;-81
2022/08/21 20:35:20;;;;;;;3.65;1.33;;;;;;;19.19;100.00;98289.72;15315825;19;20014;-81
2022/08/21 20:40:29;;;;;;;3.17;1.52;;;;;;;19.09;100.00;98292.97;15304356;19;20107;-81
2022/08/21 20:45:37;;;;;;;3.53;1.50;;;;;;;19.02;100.00;98289.41;15309883;19;20006;-81
2022/08/21 20:50:49;;;;;;;3.05;1.50;;;;;;;18.99;100.00;98294.47;15305713;19;20506;-81
2022/08/21 20:55:58;;;;;;;3.30;1.35;;;;;;;18.91;100.00;98287.34;15306866;19;20015;-80
2022/08/21 21:01:09;;;;;;;2.50;1.10;;;;;;;18.86;100.00;98292.66;15305274;19;20693;-80
2022/08/21 21:06:24;;;;;;;3.65;1.33;;;;;;;18.81;100.00;98289.72;15299155;19;20413;-81
2022/08/21 21:11:35;;;;;;;3.10;1.30;;;;;;;18.77;100.00;98294.78;15303786;19;20035;-79
2022/08/21 21:16:45;;;;;;;2.78;1.20;;;;;;;18.70;100.00;98286.63;15307353;19;20014;-80
2022/08/21 21:22:05;;;;;;;2.90;1.20;;;;;;;18.63;100.00;98291.28;15298200;19;20383;-80
2022/08/21 21:27:18;;;;;;;2.90;1.40;;;;;;;18.56;100.00;98294.03;15304293;19;20078;-80
2022/08/21 21:32:26;;;;;;;3.47;1.30;;;;;;;18.50;100.00;98300.34;15357782;19;20014;-81
2022/08/21 21:37:42;;;;;;;4.25;1.40;;;;;;;18.41;100.00;98304.38;15303207;19;20014;-81
2022/08/21 21:43:05;;;;;;;2.88;1.30;;;;;;;18.32;100.00;98301.91;15291750;19;20031;-81
2022/08/21 21:48:21;;;;;;;2.85;1.60;;;;;;;18.19;100.00;98307.38;15298113;19;20026;-81
2022/08/21 21:53:45;;;;;;;2.03;1.30;;;;;;;17.99;100.00;98313.69;15288749;19;20014;-81
2022/08/21 21:59:11;;;;;;;2.95;1.27;;;;;;;17.91;100.00;98310.34;15293530;19;20082;-81
2022/08/21 22:04:24;;;;;;;3.38;1.40;;;;;;;17.82;100.00;98310.53;15295196;19;20002;-82
2022/08/21 22:09:44;;;;;;;5.60;1.40;;;;;;;17.69;100.00;98322.28;15289001;19;20024;-81
2022/08/21 22:14:49;;;;;;;3.10;1.30;;;;;;;17.59;100.00;98329.19;15286115;19;20011;-81
2022/08/21 22:19:57;;;;;;;3.30;1.38;;;;;;;17.53;100.00;98328.16;15294618;19;20870;-82
2022/08/21 22:25:11;;;;;;;3.38;1.50;;;;;;;17.38;100.00;98325.63;15294589;19;20106;-81
2022/08/21 22:30:19;;;;;;;2.65;1.30;;;;;;;17.32;100.00;98330.03;15289231;19;20010;-83
2022/08/21 22:35:26;;;;;;;3.40;1.50;;;;;;;17.31;100.00;98338.41;15292919;19;20689;-81
2022/08/21 22:40:38;;;;;;;5.15;1.80;;;;;;;17.32;100.00;98334.63;15302455;19;20010;-81
2022/08/21 22:45:56;;;;;;;3.22;1.70;;;;;;;17.34;100.00;98327.09;15295403;19;20018;-80
2022/08/21 22:51:07;;;;;;;4.65;1.73;;;;;;;17.36;100.00;98335.88;15292117;19;20011;-81
2022/08/21 22:56:30;;;;;;;3.42;1.50;;;;;;;17.35;100.00;98334.19;15288616;19;20675;-81
2022/08/21 23:01:42;;;;;;;4.25;1.65;;;;;;;17.30;100.00;98332.09;15284688;19;20058;-81
2022/08/21 23:06:48;;;;;;;;;;;;;;;17.25;100.00;98337.34;15291059;19;20031;-81
2022/08/21 23:12:02;;;;;;;3.25;1.40;;;;;;;17.17;100.00;98349.25;15291270;19;19939;-81
2022/08/21 23:17:40;;;;;;;2.30;1.30;;;;;;;17.03;100.00;98337.53;15345033;19;20011;-79
2022/08/21 23:22:57;;;;;;;3.17;1.20;;;;;;;16.93;100.00;98331.59;15354017;19;19998;-80
2022/08/21 23:28:15;;;;;;;4.72;1.30;;;;;;;16.88;100.00;98328.63;15344504;19;20018;-81
2022/08/21 23:33:36;;;;;;;2.88;1.48;;;;;;;16.86;100.00;98317.97;15296379;19;20013;-82
2022/08/21 23:38:54;;;;;;;3.17;1.40;;;;;;;16.87;100.00;98322.38;15298516;19;20010;-83
2022/08/21 23:44:15;;;;;;;4.47;1.70;;;;;;;16.86;100.00;98315.25;15292769;19;20038;-81
2022/08/21 23:49:30;;;;;;;;;;;;;;;16.73;100.00;98320.66;15298287;19;20354;-81
2022/08/21 23:54:46;;;;;;;2.92;1.48;;;;;;;16.59;100.00;98323.31;15294365;19;19970;-81
